Time;durP1;ratioP1;P1;durP2;ratioP2;P2;SDS_P1;SDS_P2;PMS_P1;PMS_P2;Temp;Humidity;BMP_temperature;BMP_pressure;BME280_temperature;BME280_humidity;BME280_pressure;Samples;Min_cycle;Max_cycle;Signal;HPM_P1;HPM_P2
2024/04/18 00:00:08;;;;;;;7.63;6.80;;;;;;;3.88;100.00;101296.88;10853725;26;20005;-72
2024/04/18 00:05:05;;;;;;;7.10;6.40;;;;;;;3.87;100.00;101289.81;10846152;26;20012;-72
2024/04/18 00:10:02;;;;;;;8.15;7.18;;;;;;;3.84;100.00;101301.16;10858911;26;20079;-71
2024/04/18 00:14:59;;;;;;;7.30;6.70;;;;;;;3.83;100.00;101298.69;10858267;26;20144;-72
2024/04/18 00:19:56;;;;;;;7.72;6.93;;;;;;;3.74;100.00;101301.09;10864265;26;20028;-71
2024/04/18 00:24:54;;;;;;;10.85;7.28;;;;;;;3.63;100.00;101310.19;10882838;26;20013;-72
2024/04/18 00:29:51;;;;;;;8.63;6.75;;;;;;;3.63;100.00;101310.19;10860744;26;20115;-72
2024/04/18 00:34:48;;;;;;;6.97;6.38;;;;;;;3.53;100.00;101311.72;10800020;26;20735;-72
2024/04/18 00:39:47;;;;;;;7.13;6.43;;;;;;;3.49;100.00;101316.00;10858513;26;20236;-73
2024/04/18 00:44:44;;;;;;;7.13;6.53;;;;;;;3.46;100.00;101316.50;10856321;26;20004;-73
2024/04/18 00:49:41;;;;;;;7.10;6.50;;;;;;;3.40;100.00;101322.94;10858477;26;20005;-73
2024/04/18 00:54:38;;;;;;;7.55;6.32;;;;;;;3.34;100.00;101329.34;10805331;26;20084;-72
2024/04/18 00:59:36;;;;;;;7.55;6.78;;;;;;;3.29;100.00;101318.47;10763403;26;20001;-73
2024/04/18 01:04:34;;;;;;;7.45;6.75;;;;;;;3.27;100.00;101323.31;10775785;26;20017;-73
2024/04/18 01:09:31;;;;;;;8.10;6.55;;;;;;;3.28;100.00;101325.78;10867332;26;20008;-71
2024/04/18 01:14:28;;;;;;;7.55;6.85;;;;;;;3.21;100.00;101324.34;10783553;26;20006;-71
2024/04/18 01:19:25;;;;;;;8.73;7.20;;;;;;;3.15;100.00;101337.78;10795196;26;20010;-71
2024/04/18 01:24:22;;;;;;;8.15;7.35;;;;;;;3.11;100.00;101336.69;10786160;26;20079;-71
2024/04/18 01:29:19;;;;;;;7.93;6.82;;;;;;;3.07;100.00;101335.56;10788065;26;20024;-71
2024/04/18 01:34:18;;;;;;;8.68;7.72;;;;;;;3.06;100.00;101333.91;10802050;26;20072;-73
2024/04/18 01:39:15;;;;;;;9.68;7.40;;;;;;;3.03;100.00;101345.22;10815543;26;20006;-72
2024/04/18 01:44:12;;;;;;;9.18;8.13;;;;;;;2.97;100.00;101351.66;10801740;26;20369;-72
2024/04/18 01:49:09;;;;;;;11.10;8.63;;;;;;;3.03;100.00;101345.22;10853110;26;20032;-72
2024/04/18 01:54:08;;;;;;;9.27;8.38;;;;;;;2.96;100.00;101350.00;10781096;26;20084;-71
2024/04/18 01:59:05;;;;;;;9.43;8.48;;;;;;;2.90;100.00;101349.13;10807998;26;20013;-72
2024/04/18 02:04:02;;;;;;;9.65;8.73;;;;;;;2.84;100.00;101352.81;10765724;26;20470;-72
2024/04/18 02:09:00;;;;;;;9.25;8.38;;;;;;;2.83;100.00;101361.16;10794098;26;20010;-73
2024/04/18 02:13:57;;;;;;;10.15;8.60;;;;;;;2.84;100.00;101357.41;10779267;26;20079;-72
2024/04/18 02:18:54;;;;;;;12.35;9.82;;;;;;;2.76;100.00;101355.13;10828559;26;20001;-72
2024/04/18 02:23:51;;;;;;;10.07;8.98;;;;;;;2.68;100.00;101357.19;10794833;26;20016;-72
2024/04/18 02:28:49;;;;;;;10.52;9.40;;;;;;;2.67;100.00;101366.38;10778591;26;20446;-71
2024/04/18 02:33:46;;;;;;;11.75;9.73;;;;;;;2.64;100.00;101364.16;10838864;26;20008;-71
2024/04/18 02:38:43;;;;;;;10.60;9.23;;;;;;;2.66;100.00;101364.72;10847713;26;20005;-70
2024/04/18 02:43:40;;;;;;;10.35;9.27;;;;;;;2.62;100.00;101371.72;10867464;26;20005;-71
2024/04/18 02:48:38;;;;;;;12.10;10.20;;;;;;;2.57;100.00;101368.91;10787238;26;21966;-71
2024/04/18 02:53:35;;;;;;;11.25;9.82;;;;;;;2.53;100.00;101373.19;10818008;26;20468;-71
2024/04/18 02:58:32;;;;;;;10.35;9.35;;;;;;;2.49;100.00;101372.06;10850728;26;20009;-71
2024/04/18 03:03:29;;;;;;;11.00;9.88;;;;;;;2.45;100.00;101376.31;10804625;26;20021;-71
2024/04/18 03:08:26;;;;;;;10.27;8.85;;;;;;;2.42;100.00;101371.41;10771666;26;20116;-72
2024/04/18 03:13:25;;;;;;;15.73;10.40;;;;;;;2.37;100.00;101374.00;10823753;26;20009;-71
2024/04/18 03:18:22;;;;;;;10.95;9.77;;;;;;;2.35;100.00;101378.88;10794333;26;20013;-72
2024/04/18 03:23:19;;;;;;;11.98;10.38;;;;;;;2.32;100.00;101380.16;10781164;26;19998;-72
2024/04/18 03:28:16;;;;;;;13.20;10.38;;;;;;;2.31;100.00;101382.03;10756912;26;20010;-71
2024/04/18 03:33:13;;;;;;;12.65;10.82;;;;;;;2.27;100.00;101391.69;10773178;26;20417;-71
2024/04/18 03:38:11;;;;;;;11.45;10.45;;;;;;;2.26;100.00;101390.06;10765439;26;20089;-71
2024/04/18 03:43:08;;;;;;;11.52;10.43;;;;;;;2.28;100.00;101397.91;10768130;26;20078;-71
2024/04/18 03:48:05;;;;;;;14.07;10.60;;;;;;;2.22;100.00;101397.00;10834087;26;20082;-71
2024/04/18 03:53:02;;;;;;;12.52;11.00;;;;;;;2.18;100.00;101401.28;10786796;26;20531;-72
2024/04/18 03:57:59;;;;;;;12.20;10.48;;;;;;;2.18;100.00;101409.38;10798908;26;20040;-72
2024/04/18 04:02:56;;;;;;;11.48;10.27;;;;;;;2.16;100.00;101411.50;10802390;26;20002;-73
2024/04/18 04:07:53;;;;;;;11.23;10.13;;;;;;;2.10;100.00;101418.66;10779497;26;20021;-78
2024/04/18 04:12:51;;;;;;;12.75;11.43;;;;;;;2.07;100.00;101423.75;10758726;26;20021;-75
2024/04/18 04:17:48;;;;;;;12.10;10.63;;;;;;;2.07;100.00;101423.75;10801558;26;20005;-76
2024/04/18 04:22:45;;;;;;;13.80;11.48;;;;;;;2.04;100.00;101424.22;10777570;26;20561;-79
2024/04/18 04:27:42;;;;;;;12.75;11.45;;;;;;;2.02;100.00;101431.72;10777766;26;20039;-78
2024/04/18 04:32:39;;;;;;;16.20;11.45;;;;;;;2.03;100.00;101438.78;10804827;26;20469;-78
2024/04/18 04:37:36;;;;;;;14.88;11.90;;;;;;;2.01;100.00;101444.41;10815664;26;20010;-73
2024/04/18 04:42:33;;;;;;;13.65;12.23;;;;;;;2.03;100.00;101444.16;10791874;26;20469;-72
2024/04/18 04:47:32;;;;;;;13.88;12.15;;;;;;;2.07;100.00;101450.72;10799981;26;20456;-73
2024/04/18 04:52:29;;;;;;;13.88;11.57;;;;;;;2.12;100.00;101464.28;10822515;26;20017;-73
2024/04/18 04:57:26;;;;;;;15.13;12.50;;;;;;;2.16;100.00;101473.53;10775232;26;20087;-73
2024/04/18 05:02:24;;;;;;;14.57;12.93;;;;;;;2.20;100.00;101477.38;10775999;26;20016;-71
2024/04/18 05:07:21;;;;;;;15.35;12.88;;;;;;;2.30;100.00;101477.56;10797934;26;20021;-72
2024/04/18 05:12:18;;;;;;;15.63;12.60;;;;;;;2.39;100.00;101485.25;10777366;26;20007;-72
2024/04/18 05:17:16;;;;;;;14.07;12.45;;;;;;;2.45;100.00;101485.09;10760386;26;20106;-72
2024/04/18 05:22:13;;;;;;;17.15;12.85;;;;;;;2.57;100.00;101492.28;10781238;26;20079;-72
2024/04/18 05:27:10;;;;;;;15.02;13.30;;;;;;;2.72;100.00;101489.84;10770438;26;20033;-72
2024/04/18 05:32:07;;;;;;;16.70;13.98;;;;;;;2.76;100.00;101500.97;10783901;26;20020;-73
2024/04/18 05:37:04;;;;;;;17.00;13.73;;;;;;;2.93;100.00;101507.19;10787730;26;20001;-73
2024/04/18 05:42:02;;;;;;;18.55;14.68;;;;;;;3.05;100.00;101499.78;10839370;26;20013;-72
2024/04/18 05:46:59;;;;;;;16.20;13.85;;;;;;;3.14;100.00;101503.72;10795217;26;21733;-72
2024/04/18 05:51:56;;;;;;;16.20;12.88;;;;;;;3.28;100.00;101506.06;10829490;26;20042;-73
2024/04/18 05:56:53;;;;;;;16.50;13.18;;;;;;;3.46;100.00;101511.16;10783550;26;20006;-72
2024/04/18 06:01:50;;;;;;;13.77;11.85;;;;;;;3.62;100.00;101503.22;10772208;26;20021;-73
2024/04/18 06:06:47;;;;;;;17.33;13.13;;;;;;;3.84;100.00;101506.75;10783582;26;20011;-72
2024/04/18 06:11:45;;;;;;;22.30;13.57;;;;;;;4.02;100.00;101510.22;10770816;26;20001;-72
2024/04/18 06:16:43;;;;;;;15.55;13.40;;;;;;;4.10;100.00;101504.31;10766682;26;20095;-72
2024/04/18 06:21:40;;;;;;;18.05;14.88;;;;;;;4.31;100.00;101511.56;10798787;26;20023;-74
2024/04/18 06:26:37;;;;;;;17.95;13.95;;;;;;;4.45;100.00;101521.97;10807093;26;20018;-72
2024/04/18 06:31:34;;;;;;;17.42;13.65;;;;;;;4.61;100.00;101516.44;10784930;26;20006;-74
2024/04/18 06:36:31;;;;;;;15.15;12.23;;;;;;;4.76;100.00;101531.22;10794030;26;20080;-73
2024/04/18 06:41:28;;;;;;;14.65;12.18;;;;;;;4.93;100.00;101533.75;10836149;26;20419;-73
2024/04/18 06:46:26;;;;;;;13.55;11.68;;;;;;;5.05;100.00;101531.69;10795582;26;20020;-74
2024/04/18 06:51:25;;;;;;;13.32;11.25;;;;;;;5.24;100.00;101538.31;10824884;26;20001;-73
2024/04/18 06:56:22;;;;;;;16.23;11.25;;;;;;;5.38;100.00;101529.69;10796169;26;20023;-74
2024/04/18 07:01:20;;;;;;;13.90;10.65;;;;;;;5.56;100.00;101545.53;10837437;26;20009;-73
2024/04/18 07:06:17;;;;;;;17.08;9.15;;;;;;;5.63;100.00;101537.97;10796427;26;20469;-74
2024/04/18 07:11:14;;;;;;;13.02;9.35;;;;;;;5.80;100.00;101553.22;10790650;26;20045;-73
2024/04/18 07:16:11;;;;;;;17.75;8.85;;;;;;;5.96;100.00;101546.81;10764527;26;20414;-74
2024/04/18 07:21:08;;;;;;;13.07;9.60;;;;;;;6.11;100.00;101555.00;10782684;26;20014;-73
2024/04/18 07:26:06;;;;;;;10.93;9.00;;;;;;;6.25;100.00;101557.22;10778299;26;20014;-74
2024/04/18 07:31:03;;;;;;;11.52;8.85;;;;;;;6.40;100.00;101551.81;10796659;26;20045;-75
2024/04/18 07:36:00;;;;;;;10.50;8.98;;;;;;;6.48;100.00;101553.19;10828572;26;20020;-73
2024/04/18 07:40:57;;;;;;;9.07;7.60;;;;;;;6.70;100.00;101552.94;10848727;26;20085;-74
2024/04/18 07:45:54;;;;;;;9.98;7.28;;;;;;;6.91;100.00;101546.41;10836802;26;20086;-73
2024/04/18 07:50:52;;;;;;;9.30;7.82;;;;;;;7.09;100.00;101552.38;10844820;26;20015;-74
2024/04/18 07:55:49;;;;;;;8.38;7.25;;;;;;;7.45;100.00;101555.03;10847207;26;20006;-73
2024/04/18 08:00:50;;;;;;;10.18;7.75;;;;;;;7.23;100.00;101556.16;10852079;26;20004;-75
2024/04/18 08:05:49;;;;;;;8.02;7.32;;;;;;;7.28;100.00;101556.16;10857251;26;20457;-73
2024/04/18 08:10:50;;;;;;;9.68;7.38;;;;;;;7.56;100.00;101562.06;10861087;26;20005;-74
2024/04/18 08:16:07;;;;;;;10.18;7.80;;;;;;;7.44;100.00;101564.28;10840037;26;20450;-74
2024/04/18 08:21:04;;;;;;;9.80;7.40;;;;;;;7.73;100.00;101561.75;10839570;26;20078;-73
2024/04/18 08:26:01;;;;;;;8.32;7.53;;;;;;;7.71;100.00;101559.31;10860828;26;20024;-73
2024/04/18 08:30:58;;;;;;;8.88;7.15;;;;;;;7.37;100.00;101570.81;10856768;26;20009;-74
2024/04/18 08:35:56;;;;;;;8.60;7.35;;;;;;;7.27;100.00;101576.28;10852894;26;20005;-75
2024/04/18 08:40:53;;;;;;;7.78;6.90;;;;;;;7.92;100.00;101561.94;10851218;26;20006;-74
2024/04/18 08:45:50;;;;;;;8.23;7.30;;;;;;;7.82;100.00;101564.69;10848264;26;20005;-73
2024/04/18 08:50:47;;;;;;;8.15;7.20;;;;;;;7.53;100.00;101568.88;10849942;26;20526;-73
2024/04/18 08:55:51;;;;;;;8.45;7.40;;;;;;;7.67;100.00;101563.66;10848209;26;20017;-74
2024/04/18 09:00:49;;;;;;;9.18;7.95;;;;;;;8.34;100.00;101560.63;10837040;26;20075;-73
2024/04/18 09:05:46;;;;;;;9.07;7.50;;;;;;;8.13;100.00;101577.09;10842967;26;20019;-74
2024/04/18 09:10:43;;;;;;;8.55;7.43;;;;;;;8.22;100.00;101566.44;10838975;26;20067;-73
2024/04/18 09:15:40;;;;;;;8.55;7.75;;;;;;;8.79;100.00;101562.25;10845988;26;20180;-73
2024/04/18 09:20:41;;;;;;;8.43;7.63;;;;;;;9.02;100.00;101555.22;10840598;26;20005;-73
2024/04/18 09:25:39;;;;;;;8.68;7.80;;;;;;;8.60;100.00;101559.38;10854979;26;20068;-73
2024/04/18 09:30:40;;;;;;;8.60;7.90;;;;;;;8.20;100.00;101563.97;10856301;26;20004;-73
2024/04/18 09:35:38;;;;;;;12.30;8.52;;;;;;;8.49;100.00;101568.72;10861992;26;20009;-75
2024/04/18 09:40:40;;;;;;;7.75;7.00;;;;;;;9.15;100.00;101566.59;10859102;26;20085;-74
2024/04/18 09:46:09;;;;;;;8.97;7.87;;;;;;;8.93;100.00;101567.84;10841195;26;20016;-73
2024/04/18 09:51:07;;;;;;;8.85;7.50;;;;;;;9.90;100.00;101561.38;10837006;26;20863;-74
2024/04/18 09:56:05;;;;;;;7.32;6.72;;;;;;;10.05;100.00;101565.84;10843581;26;20009;-73
2024/04/18 10:01:03;;;;;;;7.50;6.80;;;;;;;9.85;100.00;101566.09;10793564;26;20001;-73
2024/04/18 10:06:05;;;;;;;7.85;7.05;;;;;;;11.21;100.00;101557.22;10762497;26;20024;-74
2024/04/18 10:11:03;;;;;;;8.35;6.40;;;;;;;10.07;100.00;101557.34;10772491;26;20006;-73
2024/04/18 10:16:09;;;;;;;8.70;6.70;;;;;;;12.71;100.00;101560.09;10764505;26;20021;-76
2024/04/18 10:21:11;;;;;;;7.35;6.43;;;;;;;14.33;100.00;101541.38;10785541;26;20019;-73
2024/04/18 10:26:14;;;;;;;8.13;7.35;;;;;;;14.86;100.00;101539.44;10835147;26;20024;-74
2024/04/18 10:31:12;;;;;;;7.10;6.47;;;;;;;14.09;100.00;101537.16;10772729;26;20048;-74
2024/04/18 10:36:18;;;;;;;7.28;6.68;;;;;;;13.68;100.00;101538.34;10764425;26;20021;-75
2024/04/18 10:41:17;;;;;;;7.22;6.57;;;;;;;13.19;100.00;101537.47;10777565;26;20010;-74
2024/04/18 10:46:14;;;;;;;5.40;4.90;;;;;;;13.23;77.39;101532.19;10764310;26;20009;-75
2024/04/18 10:51:11;;;;;;;5.68;5.20;;;;;;;12.47;92.22;101526.69;10784823;26;20334;-74
2024/04/18 10:56:09;;;;;;;7.03;5.38;;;;;;;11.38;100.00;101530.09;10794678;26;20005;-74
2024/04/18 11:01:06;;;;;;;5.93;5.32;;;;;;;10.49;100.00;101531.09;10826293;26;20009;-74
2024/04/18 11:06:03;;;;;;;6.75;6.20;;;;;;;10.32;100.00;101531.59;10760282;26;20010;-75
2024/04/18 11:11:00;;;;;;;6.40;5.80;;;;;;;9.95;100.00;101532.38;10775097;26;20527;-74
2024/04/18 11:15:57;;;;;;;6.15;5.65;;;;;;;9.88;100.00;101541.72;10766119;26;20004;-74
2024/04/18 11:20:55;;;;;;;8.00;5.80;;;;;;;9.74;100.00;101549.00;10826139;26;20009;-73
2024/04/18 11:25:53;;;;;;;6.20;5.60;;;;;;;9.64;100.00;101539.03;10788777;26;20025;-73
2024/04/18 11:30:50;;;;;;;6.25;5.65;;;;;;;9.52;100.00;101546.03;10852188;26;20037;-74
2024/04/18 11:35:47;;;;;;;7.88;4.95;;;;;;;9.60;100.00;101548.09;10778073;26;20102;-74
2024/04/18 11:40:44;;;;;;;8.93;5.30;;;;;;;10.01;100.00;101536.66;10794755;26;20009;-74
2024/04/18 11:45:43;;;;;;;7.53;4.85;;;;;;;10.18;100.00;101542.44;10847992;26;20012;-75
2024/04/18 11:50:40;;;;;;;6.63;5.07;;;;;;;10.73;100.00;101520.84;10839347;26;20005;-74
2024/04/18 11:55:37;;;;;;;5.05;4.65;;;;;;;11.36;100.00;101510.41;10846089;26;20016;-73
2024/04/18 12:00:34;;;;;;;6.30;5.20;;;;;;;11.64;100.00;101516.69;10855834;26;20140;-74
2024/04/18 12:05:32;;;;;;;5.50;5.10;;;;;;;11.84;100.00;101518.19;10844666;26;20012;-76
2024/04/18 12:10:29;;;;;;;5.72;5.10;;;;;;;12.09;100.00;101505.91;10839206;26;20510;-75
2024/04/18 12:15:26;;;;;;;5.65;5.07;;;;;;;11.02;100.00;101517.03;10843171;26;20013;-75
2024/04/18 12:20:24;;;;;;;6.45;5.18;;;;;;;9.80;100.00;101542.41;10855152;26;20009;-76
2024/04/18 12:25:21;;;;;;;5.70;5.30;;;;;;;8.58;100.00;101569.75;10841233;26;20009;-73
2024/04/18 12:30:18;;;;;;;6.90;6.40;;;;;;;7.95;100.00;101569.56;10857213;26;20418;-74
2024/04/18 12:35:15;;;;;;;7.10;6.57;;;;;;;7.45;100.00;101566.75;10759988;26;20007;-73
2024/04/18 12:40:13;;;;;;;7.15;6.47;;;;;;;7.71;100.00;101564.75;10777679;26;20042;-75
2024/04/18 12:45:10;;;;;;;6.10;5.70;;;;;;;8.69;100.00;101556.06;10831985;26;20009;-73
2024/04/18 12:50:07;;;;;;;6.80;6.20;;;;;;;9.56;100.00;101536.13;10778650;26;20003;-75
2024/04/18 12:55:04;;;;;;;7.03;6.53;;;;;;;10.89;100.00;101518.66;10850397;26;20016;-74
2024/04/18 13:00:01;;;;;;;6.35;5.75;;;;;;;12.75;100.00;101510.91;10814424;26;20331;-74
2024/04/18 13:04:59;;;;;;;6.40;5.82;;;;;;;13.25;100.00;101503.28;10858532;26;20001;-73
2024/04/18 13:09:56;;;;;;;6.50;5.93;;;;;;;13.18;100.00;101497.44;10843195;26;20020;-76
2024/04/18 13:14:54;;;;;;;8.00;6.45;;;;;;;14.01;100.00;101496.69;10840742;26;20023;-74
2024/04/18 13:19:51;;;;;;;7.00;6.40;;;;;;;12.62;100.00;101496.13;10854289;26;20755;-74
2024/04/18 13:24:48;;;;;;;7.55;6.70;;;;;;;10.62;100.00;101489.28;10789632;26;20087;-75
2024/04/18 13:29:46;;;;;;;6.70;5.90;;;;;;;10.95;100.00;101475.59;10773162;26;20028;-74
2024/04/18 13:34:43;;;;;;;6.10;5.60;;;;;;;12.09;100.00;101477.66;10849261;26;20079;-76
2024/04/18 13:39:44;;;;;;;8.15;5.80;;;;;;;11.36;100.00;101475.63;10787316;26;20374;-75
2024/04/18 13:44:41;;;;;;;9.48;6.13;;;;;;;12.54;100.00;101466.72;10838564;26;20005;-73
2024/04/18 13:49:38;;;;;;;7.90;6.07;;;;;;;13.29;100.00;101459.53;10843654;26;20017;-74
2024/04/18 13:54:36;;;;;;;7.55;5.72;;;;;;;13.29;100.00;101458.72;10774898;26;20093;-73
2024/04/18 13:59:34;;;;;;;8.25;7.10;;;;;;;11.99;100.00;101463.06;10785343;26;20004;-73
2024/04/18 14:04:31;;;;;;;7.30;5.88;;;;;;;12.00;100.00;101472.94;10789449;26;20377;-74
2024/04/18 14:09:36;;;;;;;10.10;5.60;;;;;;;12.23;100.00;101462.00;10778316;26;20021;-73
2024/04/18 14:14:37;;;;;;;4.93;4.53;;;;;;;11.88;100.00;101453.47;10772839;26;20006;-74
2024/04/18 14:19:34;;;;;;;8.07;5.13;;;;;;;12.26;100.00;101466.84;10793925;26;20018;-73
2024/04/18 14:24:31;;;;;;;7.45;5.38;;;;;;;11.39;100.00;101476.94;10766245;26;20009;-74
2024/04/18 14:29:29;;;;;;;6.05;4.80;;;;;;;11.68;100.00;101462.13;10784562;26;20346;-74
2024/04/18 14:34:26;;;;;;;5.13;4.63;;;;;;;11.75;100.00;101473.47;10844681;26;20005;-73
2024/04/18 14:39:23;;;;;;;5.28;4.65;;;;;;;11.36;100.00;101485.75;10784736;26;20005;-73
2024/04/18 14:44:20;;;;;;;6.22;5.15;;;;;;;11.09;100.00;101505.72;10770174;26;20021;-71
2024/04/18 14:49:17;;;;;;;6.43;4.82;;;;;;;10.57;100.00;101478.44;10766591;26;20076;-72
2024/04/18 14:54:14;;;;;;;7.22;5.22;;;;;;;11.02;100.00;101492.41;10831609;26;20326;-72
2024/04/18 14:59:11;;;;;;;5.85;4.50;;;;;;;10.90;100.00;101471.03;10849668;26;20104;-72
2024/04/18 15:04:08;;;;;;;12.07;4.40;;;;;;;11.11;100.00;101468.72;10840828;26;20127;-74
2024/04/18 15:09:07;;;;;;;5.25;4.75;;;;;;;11.75;100.00;101459.78;10847195;26;20024;-75
2024/04/18 15:14:05;;;;;;;6.78;5.53;;;;;;;11.67;100.00;101465.97;10849658;26;20464;-75
2024/04/18 15:19:02;;;;;;;6.43;5.05;;;;;;;11.06;100.00;101482.50;10839365;26;20004;-72
2024/04/18 15:24:01;;;;;;;8.95;4.82;;;;;;;11.47;100.00;101473.50;10796331;26;20005;-74
2024/04/18 15:29:00;;;;;;;6.03;4.50;;;;;;;11.07;100.00;101458.66;10840807;26;20009;-75
2024/04/18 15:33:58;;;;;;;9.65;4.80;;;;;;;10.60;100.00;101461.44;10792413;26;20010;-74
2024/04/18 15:38:55;;;;;;;8.27;4.40;;;;;;;11.11;100.00;101474.19;10787475;26;20083;-72
2024/04/18 15:43:54;;;;;;;7.75;4.60;;;;;;;10.81;100.00;101482.97;10775516;26;20367;-73
2024/04/18 15:48:51;;;;;;;8.77;5.25;;;;;;;10.30;100.00;101484.63;10776891;26;20033;-71
2024/04/18 15:53:48;;;;;;;10.40;5.32;;;;;;;10.05;100.00;101467.47;10783304;26;20019;-75
2024/04/18 15:58:45;;;;;;;13.55;5.32;;;;;;;9.93;100.00;101480.75;10784472;26;20065;-73
2024/04/18 16:03:43;;;;;;;11.57;5.78;;;;;;;9.57;100.00;101497.63;10768619;26;20017;-74
2024/04/18 16:08:40;;;;;;;8.43;4.70;;;;;;;9.56;100.00;101470.59;10767838;26;20347;-74
2024/04/18 16:13:37;;;;;;;5.50;4.90;;;;;;;9.08;100.00;101492.47;10767717;26;20041;-76
2024/04/18 16:18:35;;;;;;;11.73;5.00;;;;;;;9.73;100.00;101498.25;10769796;26;20565;-71
2024/04/18 16:23:33;;;;;;;9.45;4.68;;;;;;;10.35;100.00;101489.19;10802272;26;20018;-75
2024/04/18 16:28:30;;;;;;;24.42;5.13;;;;;;;10.87;100.00;101473.56;10789322;26;20008;-75
2024/04/18 16:33:27;;;;;;;10.07;4.80;;;;;;;11.56;100.00;101466.19;10839430;26;20213;-72
2024/04/18 16:38:24;;;;;;;6.20;4.32;;;;;;;9.52;100.00;101475.03;10790702;26;20017;-74
2024/04/18 16:43:21;;;;;;;7.60;5.32;;;;;;;9.47;100.00;101470.47;10775578;26;20813;-74
2024/04/18 16:48:18;;;;;;;12.07;5.20;;;;;;;10.78;100.00;101495.31;10780865;26;20104;-75
2024/04/18 16:53:15;;;;;;;13.57;6.05;;;;;;;10.44;100.00;101481.94;10775008;26;20017;-75
2024/04/18 16:58:13;;;;;;;10.40;4.55;;;;;;;9.41;100.00;101494.25;10794480;26;20177;-75
2024/04/18 17:03:10;;;;;;;8.55;4.88;;;;;;;8.79;100.00;101480.44;10761236;26;20037;-78
2024/04/18 17:08:08;;;;;;;7.63;5.25;;;;;;;8.62;100.00;101491.78;10764840;26;20474;-76
2024/04/18 17:13:05;;;;;;;9.77;4.65;;;;;;;8.61;100.00;101492.06;10757571;26;20046;-76
2024/04/18 17:18:02;;;;;;;7.05;5.20;;;;;;;8.38;100.00;101490.84;10785864;26;20005;-76
2024/04/18 17:22:59;;;;;;;6.90;4.93;;;;;;;7.74;100.00;101485.25;10795894;26;20332;-76
2024/04/18 17:27:56;;;;;;;9.20;5.10;;;;;;;7.69;100.00;101492.63;10806289;26;20356;-76
2024/04/18 17:32:53;;;;;;;9.23;6.15;;;;;;;7.54;100.00;101475.28;10809649;26;20349;-75
2024/04/18 17:37:51;;;;;;;10.73;5.93;;;;;;;7.27;100.00;101472.91;10790810;26;20018;-75
2024/04/18 17:42:48;;;;;;;8.90;5.53;;;;;;;7.56;100.00;101464.09;10773128;26;20033;-77
2024/04/18 17:47:50;;;;;;;10.95;6.15;;;;;;;7.22;100.00;101469.38;10789718;26;20002;-77
2024/04/18 17:52:48;;;;;;;13.88;5.35;;;;;;;7.16;100.00;101471.31;10797618;26;20379;-76
2024/04/18 17:57:45;;;;;;;8.52;5.53;;;;;;;7.24;100.00;101478.09;10789782;26;20009;-76
2024/04/18 18:02:42;;;;;;;9.85;5.82;;;;;;;7.11;100.00;101476.78;10789103;26;20028;-76
2024/04/18 18:07:39;;;;;;;9.50;5.55;;;;;;;6.97;100.00;101468.38;10832806;26;20004;-76
2024/04/18 18:12:36;;;;;;;8.85;5.68;;;;;;;7.09;100.00;101473.50;10883495;26;20027;-76
2024/04/18 18:17:35;;;;;;;10.40;5.93;;;;;;;7.01;100.00;101469.47;10880246;26;20004;-76
2024/04/18 18:22:32;;;;;;;9.45;5.72;;;;;;;7.01;100.00;101474.06;10882735;26;20014;-77
2024/04/18 18:27:29;;;;;;;12.85;5.55;;;;;;;7.09;100.00;101468.06;10889761;26;20552;-76
2024/04/18 18:32:27;;;;;;;11.60;5.25;;;;;;;7.04;100.00;101468.09;10865383;26;20016;-78
2024/04/18 18:37:24;;;;;;;8.73;5.60;;;;;;;6.99;100.00;101459.97;10885086;26;20008;-76
2024/04/18 18:42:21;;;;;;;9.38;5.40;;;;;;;6.91;100.00;101464.84;10895681;26;20040;-77
2024/04/18 18:47:18;;;;;;;14.00;6.18;;;;;;;6.87;100.00;101468.38;10875999;26;20435;-77
2024/04/18 18:52:16;;;;;;;12.20;6.60;;;;;;;6.87;100.00;101461.06;10848796;26;20432;-76
2024/04/18 18:57:13;;;;;;;6.82;5.30;;;;;;;6.73;100.00;101457.28;10869343;26;19997;-76
2024/04/18 19:02:10;;;;;;;12.45;5.05;;;;;;;6.64;100.00;101458.94;10856787;26;20374;-77
2024/04/18 19:07:08;;;;;;;13.27;5.30;;;;;;;6.62;100.00;101455.66;10849577;26;20000;-76
2024/04/18 19:12:05;;;;;;;9.77;5.15;;;;;;;6.69;100.00;101456.19;10857371;26;20344;-76
2024/04/18 19:17:02;;;;;;;10.93;5.43;;;;;;;6.61;100.00;101449.38;10851193;26;19997;-78
2024/04/18 19:22:00;;;;;;;10.27;5.55;;;;;;;6.68;100.00;101443.69;10884056;26;20009;-75
2024/04/18 19:27:00;;;;;;;11.80;4.57;;;;;;;6.74;100.00;101442.59;10831594;26;20035;-75
2024/04/18 19:31:58;;;;;;;12.20;6.22;;;;;;;6.63;100.00;101439.06;10819379;26;20008;-76
2024/04/18 19:36:55;;;;;;;12.90;5.07;;;;;;;6.64;100.00;101431.75;10823752;26;20047;-76
2024/04/18 19:41:52;;;;;;;10.25;5.10;;;;;;;6.59;100.00;101418.16;10787604;26;20516;-77
2024/04/18 19:46:49;;;;;;;13.35;5.00;;;;;;;6.68;100.00;101411.91;10813481;26;20087;-76
2024/04/18 19:51:47;;;;;;;10.90;4.80;;;;;;;6.75;100.00;101417.03;10838064;26;20013;-72
2024/04/18 19:56:44;;;;;;;12.63;5.43;;;;;;;6.68;100.00;101405.63;10775822;26;20053;-73
2024/04/18 20:01:41;;;;;;;14.07;4.65;;;;;;;6.71;100.00;101405.09;10806343;26;20014;-76
2024/04/18 20:06:38;;;;;;;10.52;4.95;;;;;;;6.76;100.00;101388.78;10811620;26;20093;-76
2024/04/18 20:11:35;;;;;;;7.40;4.50;;;;;;;6.83;100.00;101391.22;10809574;26;20012;-75
2024/04/18 20:16:33;;;;;;;9.70;4.47;;;;;;;6.67;100.00;101393.16;10787581;26;20027;-75
2024/04/18 20:21:31;;;;;;;7.75;4.57;;;;;;;6.72;100.00;101393.13;10805592;26;20388;-76
2024/04/18 20:26:28;;;;;;;12.20;4.43;;;;;;;6.69;100.00;101385.53;10846736;26;20006;-76
2024/04/18 20:31:25;;;;;;;14.75;6.47;;;;;;;6.73;100.00;101373.03;10811261;26;20058;-76
2024/04/18 20:36:22;;;;;;;10.13;6.05;;;;;;;6.81;100.00;101372.44;10857834;26;20013;-76
2024/04/18 20:41:19;;;;;;;7.55;4.78;;;;;;;6.93;100.00;101370.22;10868893;26;20005;-76
2024/04/18 20:46:28;;;;;;;13.57;4.97;;;;;;;6.81;100.00;101366.22;10873594;26;20055;-76
2024/04/18 20:51:25;;;;;;;9.25;4.90;;;;;;;6.72;100.00;101355.09;10869247;26;20000;-76
2024/04/18 20:56:22;;;;;;;9.95;5.03;;;;;;;6.67;100.00;101358.63;10871341;26;20016;-76
2024/04/18 21:01:20;;;;;;;12.05;5.05;;;;;;;6.59;100.00;101347.50;10866914;26;20080;-75
2024/04/18 21:06:17;;;;;;;4.95;4.20;;;;;;;6.65;100.00;101351.84;10870634;26;20082;-75
2024/04/18 21:11:14;;;;;;;12.20;5.30;;;;;;;6.55;100.00;101347.25;10866927;26;20005;-73
2024/04/18 21:16:11;;;;;;;15.57;5.72;;;;;;;6.53;100.00;101333.94;10855118;26;20091;-74
2024/04/18 21:21:09;;;;;;;15.20;4.82;;;;;;;6.47;100.00;101335.03;10861310;26;20541;-72
2024/04/18 21:26:06;;;;;;;9.73;4.93;;;;;;;6.63;100.00;101326.84;10833471;26;20013;-73
2024/04/18 21:31:03;;;;;;;7.75;5.05;;;;;;;6.56;100.00;101315.47;10790817;26;20030;-75
2024/04/18 21:36:00;;;;;;;7.97;5.28;;;;;;;6.76;100.00;101304.53;10800294;26;20466;-72
2024/04/18 21:40:58;;;;;;;16.33;6.40;;;;;;;6.80;100.00;101305.59;10782168;26;20105;-72
2024/04/18 21:45:55;;;;;;;14.02;5.75;;;;;;;6.77;100.00;101295.25;10800855;26;20005;-71
2024/04/18 21:50:52;;;;;;;13.18;5.78;;;;;;;6.83;100.00;101287.91;10853704;26;20142;-72
2024/04/18 21:55:49;;;;;;;12.98;6.30;;;;;;;6.70;100.00;101286.59;10787748;26;20009;-72
2024/04/18 22:00:46;;;;;;;10.65;6.18;;;;;;;6.78;100.00;101280.59;10801482;26;20011;-75
2024/04/18 22:05:43;;;;;;;8.27;5.25;;;;;;;6.71;100.00;101274.66;10855068;26;20008;-73
2024/04/18 22:10:40;;;;;;;17.63;6.18;;;;;;;6.62;100.00;101254.59;10864474;26;20597;-72
2024/04/18 22:15:38;;;;;;;7.60;5.10;;;;;;;6.56;100.00;101244.81;10860571;26;20471;-74
2024/04/18 22:20:35;;;;;;;8.25;6.43;;;;;;;6.63;100.00;101239.91;10854684;26;20005;-74
2024/04/18 22:25:32;;;;;;;10.00;6.07;;;;;;;6.55;100.00;101233.16;10847018;26;20024;-74
2024/04/18 22:30:29;;;;;;;11.20;5.78;;;;;;;6.55;100.00;101226.91;10870322;26;20134;-73